Time;durP1;ratioP1;P1;durP2;ratioP2;P2;SDS_P1;SDS_P2;PMS_P1;PMS_P2;Temp;Humidity;BMP_temperature;BMP_pressure;BME280_temperature;BME280_humidity;BME280_pressure;Samples;Min_cycle;Max_cycle;Signal;HPM_P1;HPM_P2
2024/04/03 00:01:40;;;;;;;0.90;0.80;;;7.30;99.90;;;;;;5030198;28;20466;-76
2024/04/03 00:04:07;;;;;;;2.53;1.03;;;7.20;99.90;;;;;;5023719;28;20230;-76
2024/04/03 00:06:32;;;;;;;1.20;1.00;;;7.30;99.90;;;;;;5034794;28;20462;-76
2024/04/03 00:08:59;;;;;;;1.33;1.00;;;7.30;99.90;;;;;;5027928;28;20196;-76
2024/04/03 00:11:26;;;;;;;2.17;1.10;;;7.30;99.90;;;;;;5034156;28;20206;-75
2024/04/03 00:13:55;;;;;;;2.10;1.38;;;7.30;99.90;;;;;;5027780;28;20594;-76
2024/04/03 00:16:21;;;;;;;1.35;1.10;;;7.30;99.90;;;;;;5034609;28;20589;-76
2024/04/03 00:18:47;;;;;;;1.40;1.17;;;7.20;99.90;;;;;;5028107;28;20228;-76
2024/04/03 00:21:13;;;;;;;1.92;1.02;;;7.20;99.90;;;;;;5033832;28;20457;-76
2024/04/03 00:23:40;;;;;;;2.00;1.20;;;7.30;99.90;;;;;;5028279;28;20581;-76
2024/04/03 00:26:05;;;;;;;1.00;0.90;;;7.30;99.90;;;;;;5033525;28;20209;-76
2024/04/03 00:28:34;;;;;;;4.90;1.23;;;7.30;99.90;;;;;;5028676;28;20565;-76
2024/04/03 00:31:01;;;;;;;0.90;0.70;;;7.30;99.90;;;;;;5033594;28;20208;-76
2024/04/03 00:33:28;;;;;;;1.33;1.17;;;7.40;99.90;;;;;;5028172;28;20219;-76
2024/04/03 00:35:55;;;;;;;2.65;1.00;;;7.40;99.90;;;;;;5034162;28;20209;-76
2024/04/03 00:38:22;;;;;;;2.10;1.10;;;7.40;99.90;;;;;;5028413;28;20222;-76
2024/04/03 00:40:57;;;;;;;1.65;0.95;;;7.30;99.90;;;;;;5033729;28;20214;-75
2024/04/03 00:43:24;;;;;;;1.15;1.05;;;7.40;99.90;;;;;;5029001;28;20250;-75
2024/04/03 00:45:51;;;;;;;1.52;0.93;;;7.40;99.90;;;;;;5034034;28;20272;-75
2024/04/03 00:48:19;;;;;;;1.08;0.90;;;7.40;99.90;;;;;;5028980;28;20214;-75
2024/04/03 00:50:46;;;;;;;1.90;1.05;;;7.50;99.90;;;;;;5033445;28;20657;-75
2024/04/03 00:53:13;;;;;;;1.88;0.95;;;7.50;99.90;;;;;;5028982;28;20251;-75
2024/04/03 00:55:40;;;;;;;1.52;1.17;;;7.50;99.90;;;;;;5033765;28;20589;-76
2024/04/03 00:58:07;;;;;;;1.15;1.02;;;7.50;99.90;;;;;;5029572;28;20689;-75
2024/04/03 01:00:33;;;;;;;0.80;0.70;;;7.50;99.90;;;;;;5034016;28;20207;-75
2024/04/03 01:03:02;;;;;;;1.10;1.00;;;7.40;99.90;;;;;;5029405;28;20232;-75
2024/04/03 01:05:28;;;;;;;1.00;0.88;;;7.40;99.90;;;;;;5033489;28;20458;-75
2024/04/03 01:07:55;;;;;;;1.67;1.13;;;7.40;99.90;;;;;;5030872;28;20219;-75
2024/04/03 01:10:20;;;;;;;1.55;1.35;;;7.40;99.90;;;;;;5032802;28;20814;-75
2024/04/03 01:12:47;;;;;;;1.10;1.00;;;7.40;99.90;;;;;;5031955;28;20227;-76
2024/04/03 01:15:13;;;;;;;1.38;1.00;;;7.40;99.90;;;;;;5031654;28;20487;-76
2024/04/03 01:17:40;;;;;;;1.00;0.90;;;7.40;99.90;;;;;;5032900;28;20286;-76
2024/04/03 01:20:08;;;;;;;2.35;1.27;;;7.30;99.90;;;;;;5031084;28;20203;-76
2024/04/03 01:22:35;;;;;;;1.90;1.13;;;7.30;99.90;;;;;;5033224;28;20235;-76
2024/04/03 01:25:03;;;;;;;1.08;0.90;;;7.20;99.90;;;;;;5030573;28;20619;-76
2024/04/03 01:27:30;;;;;;;1.85;1.45;;;7.10;99.90;;;;;;5033576;28;20225;-76
2024/04/03 01:29:56;;;;;;;1.50;1.05;;;7.00;99.90;;;;;;5030899;28;20204;-76
2024/04/03 01:32:24;;;;;;;1.27;0.90;;;7.00;99.90;;;;;;5032528;28;20228;-75
2024/04/03 01:34:50;;;;;;;2.25;1.77;;;7.00;99.90;;;;;;5031082;28;20461;-76
2024/04/03 01:37:18;;;;;;;1.00;0.90;;;6.90;99.90;;;;;;5033025;28;20289;-76
2024/04/03 01:39:44;;;;;;;0.98;0.73;;;6.90;99.90;;;;;;5031087;28;20220;-76
2024/04/03 01:42:12;;;;;;;3.58;1.48;;;6.80;99.90;;;;;;5032396;28;20677;-76
2024/04/03 01:44:38;;;;;;;3.83;1.20;;;6.80;99.90;;;;;;5031545;28;20302;-76
2024/04/03 01:47:05;;;;;;;1.10;0.90;;;6.70;99.90;;;;;;5032886;28;20281;-76
2024/04/03 01:49:31;;;;;;;2.45;1.27;;;6.70;99.90;;;;;;5031865;28;20456;-76
2024/04/03 01:51:58;;;;;;;1.53;1.00;;;6.60;99.90;;;;;;5040130;28;20208;-76
2024/04/03 01:54:24;;;;;;;2.40;1.20;;;6.50;99.90;;;;;;5052293;28;20589;-76
2024/04/03 01:56:51;;;;;;;2.40;0.90;;;6.60;99.90;;;;;;5053007;28;20205;-76
2024/04/03 01:59:18;;;;;;;1.80;1.05;;;6.60;99.90;;;;;;5052531;28;20223;-76
2024/04/03 02:01:44;;;;;;;1.42;0.98;;;6.60;99.90;;;;;;5052685;28;20292;-76
2024/04/03 02:04:11;;;;;;;1.35;1.05;;;6.70;99.90;;;;;;5052150;28;20238;-76
2024/04/03 02:06:37;;;;;;;3.55;1.40;;;6.70;99.90;;;;;;5052648;28;20205;-76
2024/04/03 02:09:03;;;;;;;1.93;1.00;;;6.80;99.90;;;;;;5052393;28;20208;-76
2024/04/03 02:11:29;;;;;;;1.13;1.02;;;6.80;99.90;;;;;;5052153;28;20209;-76
2024/04/03 02:13:56;;;;;;;1.83;1.30;;;6.80;99.90;;;;;;5052197;28;20223;-76
2024/04/03 02:16:24;;;;;;;1.27;0.90;;;6.90;99.90;;;;;;5052232;28;20210;-76
2024/04/03 02:18:51;;;;;;;1.00;0.88;;;6.90;99.90;;;;;;5052477;28;20227;-76
2024/04/03 02:21:17;;;;;;;1.20;0.95;;;6.90;99.90;;;;;;5052008;28;20695;-76
2024/04/03 02:23:43;;;;;;;1.83;1.10;;;6.90;99.90;;;;;;5039482;28;20217;-76
2024/04/03 02:26:09;;;;;;;3.13;1.40;;;6.90;99.90;;;;;;5051886;28;20209;-75
2024/04/03 02:28:36;;;;;;;1.37;1.27;;;6.90;99.90;;;;;;5051689;28;20200;-76
2024/04/03 02:31:02;;;;;;;1.80;0.93;;;6.90;99.90;;;;;;5051972;28;20223;-76
2024/04/03 02:33:30;;;;;;;1.27;0.90;;;6.90;99.90;;;;;;5051804;28;20226;-75
2024/04/03 02:35:55;;;;;;;1.80;1.20;;;7.00;99.90;;;;;;5052146;28;20476;-76
2024/04/03 02:38:22;;;;;;;1.40;0.93;;;7.00;99.90;;;;;;5051935;28;20230;-76
2024/04/03 02:40:48;;;;;;;1.50;1.10;;;7.00;99.90;;;;;;5052021;28;20231;-76
2024/04/03 02:43:15;;;;;;;1.13;1.03;;;7.10;99.90;;;;;;5051480;28;20254;-76
2024/04/03 02:45:40;;;;;;;1.10;0.95;;;7.10;99.90;;;;;;5051997;28;20585;-76
2024/04/03 02:48:07;;;;;;;1.73;1.23;;;7.10;99.90;;;;;;5051507;28;20194;-76
2024/04/03 02:50:35;;;;;;;2.45;1.65;;;7.20;99.90;;;;;;5051777;28;20585;-76
2024/04/03 02:53:01;;;;;;;1.40;1.05;;;7.30;99.90;;;;;;5051541;28;20238;-76
2024/04/03 02:55:27;;;;;;;2.20;1.05;;;7.30;99.90;;;;;;5051324;28;20218;-76
2024/04/03 02:57:54;;;;;;;1.00;0.90;;;7.30;99.90;;;;;;5051648;28;20285;-75
2024/04/03 03:00:20;;;;;;;3.10;1.27;;;7.40;99.90;;;;;;5051537;28;20214;-76
2024/04/03 03:02:48;;;;;;;1.10;1.00;;;7.40;99.90;;;;;;5048818;28;20234;-76
2024/04/03 03:05:14;;;;;;;1.33;1.15;;;7.40;99.90;;;;;;5027960;28;20940;-77
2024/04/03 03:07:42;;;;;;;1.13;1.03;;;7.40;99.90;;;;;;5023160;28;20224;-76
2024/04/03 03:10:08;;;;;;;2.45;1.00;;;7.50;99.90;;;;;;5026013;28;20475;-77
2024/04/03 03:12:35;;;;;;;1.03;0.93;;;7.50;99.90;;;;;;5022788;28;20220;-77
2024/04/03 03:15:00;;;;;;;1.63;1.10;;;7.50;99.90;;;;;;5026177;28;20205;-76
2024/04/03 03:17:27;;;;;;;1.30;1.00;;;7.50;99.90;;;;;;5023816;28;20200;-75
2024/04/03 03:19:53;;;;;;;1.20;1.10;;;7.50;99.90;;;;;;5030053;28;20225;-76
2024/04/03 03:22:20;;;;;;;2.77;1.10;;;7.50;99.90;;;;;;5030225;28;20300;-76
2024/04/03 03:24:48;;;;;;;1.10;1.00;;;7.50;99.90;;;;;;5028180;28;20941;-77
2024/04/03 03:27:15;;;;;;;0.90;0.80;;;7.50;99.90;;;;;;5023102;28;20724;-75
2024/04/03 03:29:41;;;;;;;1.40;1.13;;;7.50;99.90;;;;;;5025327;28;20201;-75
2024/04/03 03:32:08;;;;;;;1.53;1.40;;;7.50;99.90;;;;;;5023919;28;20210;-76
2024/04/03 03:34:33;;;;;;;1.23;1.10;;;7.40;99.90;;;;;;5024343;28;20468;-76
2024/04/03 03:37:00;;;;;;;1.17;1.03;;;7.40;99.90;;;;;;5025433;28;20666;-76
2024/04/03 03:39:27;;;;;;;1.08;0.98;;;7.30;99.90;;;;;;5026287;28;20231;-77
2024/04/03 03:41:55;;;;;;;1.55;1.20;;;7.40;99.90;;;;;;5024245;28;20683;-77
2024/04/03 03:44:21;;;;;;;1.50;1.13;;;7.30;99.90;;;;;;5023665;28;20230;-76
2024/04/03 03:46:47;;;;;;;1.37;1.27;;;7.30;99.90;;;;;;5023543;28;20206;-76
2024/04/03 03:54:42;;;;;;;2.00;1.50;;;7.30;99.90;;;;;;5027666;28;20258;-75
2024/04/03 03:57:10;;;;;;;1.70;1.02;;;7.20;99.90;;;;;;5030426;28;20219;-75
2024/04/03 03:59:37;;;;;;;2.53;1.27;;;7.30;99.90;;;;;;5030042;28;20231;-75
2024/04/03 04:02:04;;;;;;;2.35;1.17;;;7.30;99.90;;;;;;5030551;28;20207;-75
2024/04/03 04:04:30;;;;;;;1.55;1.30;;;7.20;99.90;;;;;;5030534;28;20242;-75
2024/04/03 04:06:56;;;;;;;1.77;1.43;;;7.20;99.90;;;;;;5030991;28;20209;-75
2024/04/03 04:09:22;;;;;;;2.10;1.33;;;7.20;99.90;;;;;;5030626;28;20216;-74
2024/04/03 04:11:49;;;;;;;1.10;1.00;;;7.20;99.90;;;;;;5033677;28;20201;-75
2024/04/03 04:14:16;;;;;;;2.38;1.35;;;7.20;99.90;;;;;;5035050;28;20750;-75
2024/04/03 04:16:43;;;;;;;1.52;1.20;;;7.20;99.90;;;;;;5031099;28;20262;-75
2024/04/03 04:19:09;;;;;;;3.38;1.13;;;7.20;99.90;;;;;;5030664;28;20233;-75
2024/04/03 04:21:36;;;;;;;1.30;1.20;;;7.10;99.90;;;;;;5030393;28;20208;-75
2024/04/03 04:24:03;;;;;;;1.40;0.95;;;7.10;99.90;;;;;;5030461;28;20265;-74
2024/04/03 04:26:31;;;;;;;1.50;1.20;;;7.10;99.90;;;;;;5030740;28;20207;-75
2024/04/03 04:28:56;;;;;;;1.55;1.10;;;7.10;99.90;;;;;;5031323;28;20725;-77
2024/04/03 04:31:25;;;;;;;1.37;1.17;;;7.10;99.90;;;;;;5030379;28;20240;-75
2024/04/03 04:33:50;;;;;;;2.08;1.15;;;7.10;99.90;;;;;;5030419;28;20225;-75
2024/04/03 04:36:17;;;;;;;2.03;1.07;;;7.10;99.90;;;;;;5030770;28;20214;-76
2024/04/03 04:38:43;;;;;;;7.53;1.50;;;7.10;99.90;;;;;;5030453;28;20236;-75
2024/04/03 04:41:09;;;;;;;1.17;1.07;;;7.00;99.90;;;;;;5030490;28;20205;-76
2024/04/03 04:43:35;;;;;;;2.65;1.30;;;7.00;99.90;;;;;;5030292;28;20230;-75
2024/04/03 04:46:03;;;;;;;1.87;1.33;;;7.00;99.90;;;;;;5030733;28;20208;-75
2024/04/03 04:48:31;;;;;;;1.17;1.00;;;7.00;99.90;;;;;;5030368;28;20206;-76
2024/04/03 04:50:59;;;;;;;1.52;1.42;;;7.10;99.90;;;;;;5032305;28;20209;-75
2024/04/03 04:53:25;;;;;;;2.33;1.00;;;7.10;99.90;;;;;;5033839;28;20227;-75
2024/04/03 04:55:54;;;;;;;1.95;0.98;;;7.10;99.90;;;;;;5034094;28;20232;-75
2024/04/03 04:58:20;;;;;;;2.42;1.05;;;7.10;99.90;;;;;;5034143;28;20210;-75
2024/04/03 05:00:46;;;;;;;1.30;1.20;;;7.10;99.90;;;;;;5034032;28;20215;-75
2024/04/03 05:03:12;;;;;;;1.20;1.05;;;7.20;99.90;;;;;;5033730;28;20485;-76
2024/04/03 05:05:40;;;;;;;1.50;1.10;;;7.20;99.90;;;;;;5034014;28;20660;-75
2024/04/03 05:08:07;;;;;;;2.00;1.20;;;7.20;99.90;;;;;;5034466;28;20202;-75
2024/04/03 05:10:34;;;;;;;1.90;0.93;;;7.30;99.90;;;;;;5033843;28;20201;-75
2024/04/03 05:12:59;;;;;;;2.00;1.20;;;7.30;99.90;;;;;;5033440;28;20231;-75
2024/04/03 05:15:29;;;;;;;1.73;1.47;;;7.30;99.90;;;;;;5033548;28;20609;-75
2024/04/03 05:17:55;;;;;;;1.40;1.27;;;7.30;99.90;;;;;;5033973;28;20462;-75
2024/04/03 05:20:21;;;;;;;1.20;1.10;;;7.30;99.90;;;;;;5033566;28;20231;-75
2024/04/03 05:22:48;;;;;;;1.40;1.00;;;7.40;99.90;;;;;;5033207;28;20229;-75
2024/04/03 05:25:15;;;;;;;1.25;1.05;;;7.40;99.90;;;;;;5033276;28;20209;-75
2024/04/03 05:27:41;;;;;;;2.33;1.02;;;7.50;99.90;;;;;;5033505;28;20215;-75
2024/04/03 05:30:09;;;;;;;1.30;0.93;;;7.50;99.90;;;;;;5033461;28;20244;-75
2024/04/03 05:32:34;;;;;;;2.90;1.20;;;7.50;99.90;;;;;;5033124;28;20240;-75
2024/04/03 05:35:01;;;;;;;3.20;1.50;;;7.60;99.90;;;;;;5033128;28;20216;-75
2024/04/03 05:37:27;;;;;;;2.38;1.10;;;7.70;99.90;;;;;;5033328;28;20239;-75
2024/04/03 05:39:55;;;;;;;1.30;0.97;;;7.70;99.90;;;;;;5033128;28;20228;-75
2024/04/03 05:42:21;;;;;;;1.00;0.90;;;7.80;99.90;;;;;;5032782;28;20486;-75
2024/04/03 05:44:47;;;;;;;1.20;1.00;;;7.80;99.90;;;;;;5032839;28;20223;-75
2024/04/03 05:47:13;;;;;;;1.00;0.90;;;7.90;99.90;;;;;;5033176;28;20213;-75
2024/04/03 05:49:40;;;;;;;1.50;0.93;;;8.00;99.90;;;;;;5032996;28;20222;-75
2024/04/03 05:52:06;;;;;;;1.92;1.08;;;8.10;99.90;;;;;;5032783;28;20459;-75
2024/04/03 05:54:33;;;;;;;1.67;1.10;;;8.10;99.90;;;;;;5032608;28;20219;-75
2024/04/03 05:57:00;;;;;;;1.10;0.90;;;8.10;99.90;;;;;;5033060;28;20596;-75
2024/04/03 05:59:26;;;;;;;1.70;1.50;;;8.20;99.90;;;;;;5032813;28;20239;-75
2024/04/03 06:01:52;;;;;;;1.35;1.00;;;8.30;99.90;;;;;;5031360;28;20225;-75
2024/04/03 06:04:19;;;;;;;2.00;1.10;;;8.30;99.90;;;;;;5032722;28;20232;-75
2024/04/03 06:06:45;;;;;;;1.80;1.02;;;8.30;99.90;;;;;;5032558;28;20205;-75
2024/04/03 06:09:12;;;;;;;4.10;1.13;;;8.30;99.90;;;;;;5032536;28;20212;-75
2024/04/03 06:11:38;;;;;;;1.95;1.00;;;8.30;99.90;;;;;;5032548;28;20209;-75
2024/04/03 06:14:06;;;;;;;1.40;1.00;;;8.30;99.90;;;;;;5032390;28;20591;-75
2024/04/03 06:16:31;;;;;;;2.75;1.15;;;8.30;99.90;;;;;;5032677;28;20212;-75
2024/04/03 06:19:02;;;;;;;1.43;1.03;;;8.30;99.90;;;;;;5032343;28;20347;-75
2024/04/03 06:21:28;;;;;;;1.80;0.80;;;8.30;99.90;;;;;;5032341;28;20740;-75
2024/04/03 06:23:55;;;;;;;1.27;0.90;;;8.40;99.90;;;;;;5032163;28;20221;-75
2024/04/03 06:26:20;;;;;;;1.15;0.90;;;8.40;99.90;;;;;;5032380;28;20213;-75
2024/04/03 06:28:47;;;;;;;1.10;1.00;;;8.40;99.90;;;;;;5032151;28;20207;-75
2024/04/03 06:31:15;;;;;;;1.45;1.10;;;8.50;99.90;;;;;;5031998;28;20216;-75
2024/04/03 06:33:41;;;;;;;1.45;0.90;;;8.50;99.90;;;;;;5031978;28;20698;-75
2024/04/03 06:36:08;;;;;;;1.20;1.00;;;8.60;99.90;;;;;;5032240;28;20208;-75
2024/04/03 06:38:34;;;;;;;1.17;0.90;;;8.60;99.90;;;;;;5032138;28;20206;-76
2024/04/03 06:41:00;;;;;;;1.77;1.10;;;8.60;99.90;;;;;;5031776;28;20217;-76
2024/04/03 06:43:26;;;;;;;1.88;0.95;;;8.70;99.90;;;;;;5031824;28;20233;-76
2024/04/03 06:45:56;;;;;;;1.00;0.90;;;8.80;99.90;;;;;;5031930;28;20623;-75
2024/04/03 06:48:23;;;;;;;1.00;0.80;;;8.80;99.90;;;;;;5031925;28;20541;-76
2024/04/03 06:50:53;;;;;;;1.98;1.00;;;9.00;99.90;;;;;;5031673;28;20252;-76
2024/04/03 06:53:19;;;;;;;1.33;0.93;;;8.90;99.90;;;;;;5031591;28;20226;-76
2024/04/03 06:55:55;;;;;;;1.55;1.10;;;9.00;99.90;;;;;;5031531;28;20220;-76
2024/04/03 06:58:21;;;;;;;1.92;1.10;;;9.00;99.90;;;;;;5031904;28;20635;-76
2024/04/03 07:00:48;;;;;;;2.85;0.93;;;9.00;99.90;;;;;;5031481;28;20229;-75
2024/04/03 07:03:14;;;;;;;1.60;0.90;;;8.90;99.90;;;;;;5031460;28;20259;-76
2024/04/03 07:05:44;;;;;;;1.35;0.90;;;8.90;99.90;;;;;;5031642;28;20205;-76
2024/04/03 07:08:09;;;;;;;1.17;1.00;;;9.00;99.90;;;;;;5031637;28;20224;-76
2024/04/03 07:10:36;;;;;;;1.30;1.20;;;9.00;99.90;;;;;;5031739;28;20679;-76
2024/04/03 07:13:03;;;;;;;0.90;0.80;;;9.10;99.90;;;;;;5030901;28;20488;-76
2024/04/03 07:15:31;;;;;;;1.50;1.10;;;9.10;99.90;;;;;;5031323;28;20260;-75
2024/04/03 07:17:57;;;;;;;1.70;1.05;;;9.10;99.90;;;;;;5031375;28;20208;-75
2024/04/03 07:20:25;;;;;;;4.50;1.30;;;9.20;99.90;;;;;;5031242;28;20256;-75
2024/04/03 07:22:55;;;;;;;1.27;1.00;;;9.30;99.90;;;;;;5031102;28;20226;-75
2024/04/03 07:25:22;;;;;;;1.90;1.30;;;9.30;99.90;;;;;;5030707;28;20216;-76
2024/04/03 07:27:51;;;;;;;1.20;1.02;;;9.40;99.90;;;;;;5025161;28;20652;-76
2024/04/03 07:30:18;;;;;;;1.27;1.05;;;9.50;99.90;;;;;;5027909;28;20229;-76
2024/04/03 07:32:43;;;;;;;1.50;1.10;;;9.60;99.90;;;;;;5023932;28;20237;-75
2024/04/03 07:35:10;;;;;;;2.80;1.10;;;9.70;99.90;;;;;;5024611;28;20210;-76
2024/04/03 07:37:38;;;;;;;2.13;1.05;;;9.70;99.90;;;;;;5051357;28;20565;-75
2024/04/03 07:40:08;;;;;;;0.90;0.80;;;9.80;99.90;;;;;;5050984;28;20225;-76
2024/04/03 07:42:36;;;;;;;1.10;0.90;;;9.90;99.90;;;;;;5050928;28;20639;-76
2024/04/03 07:45:04;;;;;;;1.80;0.95;;;9.90;99.90;;;;;;5033796;28;20217;-76
2024/04/03 07:47:30;;;;;;;0.90;0.80;;;9.90;99.90;;;;;;5031333;28;20217;-76
2024/04/03 07:49:57;;;;;;;1.00;0.80;;;9.90;99.90;;;;;;5031104;28;20263;-76
2024/04/03 07:52:22;;;;;;;1.80;1.02;;;10.00;99.90;;;;;;5030803;28;20575;-73
2024/04/03 07:54:49;;;;;;;1.47;1.27;;;10.20;99.90;;;;;;5030896;28;20209;-74
2024/04/03 07:57:16;;;;;;;1.90;1.00;;;10.20;99.90;;;;;;5031087;28;20213;-74
2024/04/03 07:59:43;;;;;;;1.77;1.02;;;10.30;99.90;;;;;;5030978;28;20261;-74
2024/04/03 08:02:09;;;;;;;1.58;1.20;;;10.40;99.90;;;;;;5030987;28;20206;-74
2024/04/03 08:04:37;;;;;;;2.47;1.15;;;10.40;99.90;;;;;;5030961;28;20202;-74
2024/04/03 08:07:03;;;;;;;1.55;1.00;;;10.40;99.90;;;;;;5030959;28;20221;-74
2024/04/03 08:09:32;;;;;;;1.50;1.08;;;10.40;99.90;;;;;;5030987;28;20194;-74
2024/04/03 08:11:57;;;;;;;2.45;1.05;;;10.50;99.90;;;;;;5030637;28;20202;-74
2024/04/03 08:14:26;;;;;;;3.77;1.83;;;10.60;99.90;;;;;;5030796;28;20621;-74
2024/04/03 08:16:52;;;;;;;1.00;0.80;;;10.80;99.90;;;;;;5030821;28;20206;-74
2024/04/03 08:19:19;;;;;;;1.10;0.90;;;11.10;99.90;;;;;;5030970;28;20241;-74
2024/04/03 08:21:46;;;;;;;0.90;0.80;;;11.30;99.90;;;;;;5030669;28;20206;-74
2024/04/03 08:24:13;;;;;;;1.35;0.90;;;11.50;99.90;;;;;;5030614;28;20226;-74
2024/04/03 08:26:39;;;;;;;1.13;0.80;;;11.60;99.90;;;;;;5034388;28;20206;-74
2024/04/03 08:29:05;;;;;;;1.93;0.87;;;11.70;99.90;;;;;;5034520;28;20206;-74
2024/04/03 08:31:33;;;;;;;0.93;0.83;;;11.90;99.90;;;;;;5034704;28;20210;-74
2024/04/03 08:33:59;;;;;;;1.30;1.13;;;12.10;99.90;;;;;;5034087;28;20492;-74
2024/04/03 08:36:25;;;;;;;2.30;0.87;;;12.30;99.90;;;;;;5034664;28;20551;-73
2024/04/03 08:38:53;;;;;;;1.40;1.00;;;12.70;99.90;;;;;;5034217;28;20539;-73
2024/04/03 08:41:19;;;;;;;1.00;0.90;;;13.10;99.90;;;;;;5034106;28;20468;-74
2024/04/03 08:43:46;;;;;;;1.20;0.97;;;13.20;99.90;;;;;;5034222;28;20484;-74
2024/04/03 08:46:12;;;;;;;1.90;1.03;;;13.20;99.90;;;;;;5034599;28;20471;-74
2024/04/03 08:48:41;;;;;;;0.87;0.73;;;13.00;99.90;;;;;;5035606;28;20843;-74
2024/04/03 08:51:07;;;;;;;1.10;0.90;;;12.80;99.90;;;;;;5035432;28;20213;-74
2024/04/03 08:53:33;;;;;;;1.30;0.90;;;12.90;99.90;;;;;;5035376;28;20488;-74
2024/04/03 08:55:59;;;;;;;0.80;0.70;;;13.10;99.90;;;;;;5037146;28;20217;-74
2024/04/03 08:58:26;;;;;;;1.83;1.10;;;13.10;99.90;;;;;;5037316;28;20479;-74
2024/04/03 09:00:52;;;;;;;2.03;1.00;;;12.90;99.90;;;;;;5035287;28;20499;-73
2024/04/03 09:03:20;;;;;;;0.97;0.80;;;12.90;99.90;;;;;;5034099;28;20577;-74
2024/04/03 09:05:49;;;;;;;0.97;0.80;;;12.90;99.90;;;;;;5034073;28;20464;-73
2024/04/03 09:08:16;;;;;;;3.50;1.20;;;12.80;99.90;;;;;;5033839;28;20464;-74
2024/04/03 09:10:47;;;;;;;3.53;1.23;;;12.80;99.90;;;;;;5033939;28;20456;-74
2024/04/03 09:13:13;;;;;;;1.17;0.90;;;12.90;99.90;;;;;;5033571;28;20508;-74
2024/04/03 09:15:39;;;;;;;1.17;0.80;;;13.00;99.90;;;;;;5034042;28;20460;-74
2024/04/03 09:18:07;;;;;;;2.17;1.10;;;13.20;99.90;;;;;;5033546;28;20468;-75
2024/04/03 09:20:33;;;;;;;2.20;1.20;;;13.20;99.90;;;;;;5033419;28;20640;-75
2024/04/03 09:23:01;;;;;;;1.30;1.00;;;13.40;99.90;;;;;;5033346;28;20535;-75
2024/04/03 09:25:28;;;;;;;1.13;0.93;;;13.80;99.90;;;;;;5033467;28;20479;-75
2024/04/03 09:28:03;;;;;;;1.57;0.80;;;14.20;99.90;;;;;;5033559;28;20471;-75
2024/04/03 09:30:29;;;;;;;2.23;0.90;;;14.70;99.90;;;;;;5034057;28;20462;-77
2024/04/03 09:32:58;;;;;;;1.50;1.10;;;14.90;99.00;;;;;;5033971;28;20860;-77
2024/04/03 09:35:28;;;;;;;1.10;0.90;;;15.00;99.10;;;;;;5033619;28;20534;-76
2024/04/03 09:37:55;;;;;;;1.10;0.93;;;15.40;98.90;;;;;;5033483;28;20522;-76
2024/04/03 09:40:25;;;;;;;1.57;0.90;;;15.90;98.40;;;;;;5033158;28;20866;-74
2024/04/03 09:42:56;;;;;;;1.10;0.97;;;16.40;97.90;;;;;;5032921;28;20583;-74
2024/04/03 09:45:23;;;;;;;2.70;1.20;;;17.60;98.60;;;;;;5033187;28;20472;-75
2024/04/03 09:47:57;;;;;;;1.60;1.10;;;17.80;95.30;;;;;;5033460;28;20468;-74
2024/04/03 09:50:24;;;;;;;1.10;0.80;;;17.80;95.10;;;;;;5053143;28;20972;-74
2024/04/03 09:52:51;;;;;;;0.90;0.70;;;17.00;96.30;;;;;;5052875;28;20484;-74
2024/04/03 09:55:20;;;;;;;0.90;0.80;;;16.40;96.80;;;;;;5052515;28;20474;-74
2024/04/03 09:57:48;;;;;;;0.93;0.73;;;15.90;96.40;;;;;;5052787;28;20502;-74
2024/04/03 10:00:16;;;;;;;0.90;0.80;;;15.20;96.70;;;;;;5052595;28;20487;-74
2024/04/03 10:02:49;;;;;;;1.00;0.80;;;14.40;97.50;;;;;;5052600;28;20480;-74
2024/04/03 10:05:14;;;;;;;1.00;0.90;;;14.20;98.50;;;;;;5052379;28;20463;-74
2024/04/03 10:07:41;;;;;;;1.50;1.00;;;14.10;98.40;;;;;;5052881;28;20471;-75
2024/04/03 10:10:16;;;;;;;0.97;0.67;;;13.90;98.50;;;;;;5050762;28;20201;-74
2024/04/03 10:12:45;;;;;;;1.10;0.90;;;13.70;99.10;;;;;;5050351;28;20518;-74
2024/04/03 10:15:22;;;;;;;1.13;0.90;;;13.60;99.10;;;;;;5049934;28;20501;-74
2024/04/03 10:17:49;;;;;;;1.07;0.70;;;13.60;99.90;;;;;;5052722;28;20834;-74
2024/04/03 10:20:38;;;;;;;1.53;0.87;;;13.40;99.90;;;;;;5052190;28;20490;-74
2024/04/03 10:23:08;;;;;;;4.43;1.63;;;13.10;99.90;;;;;;5052061;28;20833;-74
2024/04/03 10:25:35;;;;;;;0.90;0.70;;;13.00;99.90;;;;;;5052089;28;20498;-74
2024/04/03 10:28:02;;;;;;;1.10;0.80;;;13.00;99.90;;;;;;5052101;28;20459;-73
2024/04/03 10:30:29;;;;;;;1.00;0.70;;;12.90;99.90;;;;;;5052421;28;20830;-74
2024/04/03 10:32:58;;;;;;;1.00;0.73;;;12.70;99.90;;;;;;5052869;28;20853;-74
2024/04/03 10:35:25;;;;;;;0.80;0.70;;;12.60;99.90;;;;;;5052678;28;20468;-75
2024/04/03 10:37:51;;;;;;;0.93;0.70;;;12.50;99.90;;;;;;5052250;28;20468;-75
2024/04/03 10:40:17;;;;;;;0.90;0.77;;;12.30;99.90;;;;;;5041186;28;20628;-75
2024/04/03 10:42:49;;;;;;;0.80;0.70;;;12.30;99.90;;;;;;5031982;28;20341;-75
2024/04/03 10:45:14;;;;;;;1.33;0.70;;;12.30;99.90;;;;;;5031627;28;20467;-75
2024/04/03 10:47:43;;;;;;;1.10;0.90;;;12.20;99.90;;;;;;5031543;28;20201;-75
2024/04/03 10:50:09;;;;;;;0.90;0.80;;;12.30;99.90;;;;;;5031957;28;20202;-75
2024/04/03 10:52:36;;;;;;;0.90;0.80;;;12.60;99.90;;;;;;5031855;28;20768;-74
2024/04/03 10:55:02;;;;;;;1.03;0.87;;;12.80;99.90;;;;;;5031398;28;20214;-75
2024/04/03 10:57:29;;;;;;;3.70;0.90;;;12.90;99.90;;;;;;5032071;28;20464;-75
2024/04/03 10:59:55;;;;;;;0.80;0.70;;;13.00;99.90;;;;;;5031839;28;20860;-74
2024/04/03 11:02:22;;;;;;;0.90;0.80;;;13.10;99.90;;;;;;5037897;28;20492;-75
2024/04/03 11:04:49;;;;;;;1.10;0.73;;;13.30;99.90;;;;;;5031564;28;20468;-75
2024/04/03 11:07:16;;;;;;;3.33;1.00;;;13.30;99.90;;;;;;5031501;28;20506;-74
2024/04/03 11:09:42;;;;;;;2.43;0.90;;;13.50;99.90;;;;;;5031507;28;20966;-75
2024/04/03 11:12:12;;;;;;;0.90;0.70;;;13.50;99.90;;;;;;5031210;28;20472;-74
2024/04/03 11:14:38;;;;;;;0.80;0.70;;;13.30;99.90;;;;;;5031717;28;20461;-75
2024/04/03 11:17:07;;;;;;;1.30;0.90;;;13.20;99.90;;;;;;5031810;28;20469;-74
2024/04/03 11:19:34;;;;;;;0.80;0.70;;;12.90;99.90;;;;;;5027341;28;20856;-74
2024/04/03 11:22:02;;;;;;;1.10;0.90;;;12.80;99.90;;;;;;5044858;28;20463;-73
2024/04/03 11:24:27;;;;;;;0.80;0.80;;;12.80;99.90;;;;;;5050983;28;20495;-74
2024/04/03 11:26:54;;;;;;;0.83;0.73;;;12.80;99.90;;;;;;5051416;28;20502;-74
2024/04/03 11:29:30;;;;;;;0.80;0.80;;;13.10;99.90;;;;;;5051045;28;20202;-73
2024/04/03 11:31:56;;;;;;;0.80;0.60;;;13.10;99.90;;;;;;5051378;28;20566;-74
2024/04/03 11:34:24;;;;;;;1.17;0.80;;;12.70;99.90;;;;;;5050607;28;20860;-74
2024/04/03 11:36:51;;;;;;;1.00;0.80;;;12.40;99.90;;;;;;5051316;28;20541;-74
2024/04/03 11:39:19;;;;;;;0.90;0.70;;;12.30;99.90;;;;;;5050967;28;20213;-74
2024/04/03 11:41:46;;;;;;;0.80;0.70;;;12.30;99.90;;;;;;5050987;28;20317;-75
2024/04/03 11:44:13;;;;;;;1.00;0.80;;;12.10;99.90;;;;;;5050731;28;20229;-74
2024/04/03 11:46:39;;;;;;;0.98;0.70;;;11.90;99.90;;;;;;5046372;28;20551;-74
2024/04/03 11:49:05;;;;;;;0.90;0.80;;;11.80;99.90;;;;;;5031039;28;20209;-73
2024/04/03 11:51:32;;;;;;;0.80;0.60;;;11.60;99.90;;;;;;5026665;28;20687;-74
2024/04/03 11:53:58;;;;;;;0.80;0.70;;;11.70;99.90;;;;;;5043523;28;20483;-74
2024/04/03 11:56:29;;;;;;;1.00;0.90;;;11.90;99.90;;;;;;5051110;28;20201;-74
2024/04/03 11:58:55;;;;;;;0.82;0.75;;;12.00;99.90;;;;;;5051028;28;20207;-74
2024/04/03 12:01:22;;;;;;;0.80;0.60;;;12.10;99.90;;;;;;5053540;28;20670;-74
2024/04/03 12:03:48;;;;;;;0.80;0.60;;;12.20;99.90;;;;;;5054761;28;20241;-74
2024/04/03 12:06:14;;;;;;;1.47;0.90;;;12.10;99.90;;;;;;5054949;28;20471;-74
2024/04/03 12:08:40;;;;;;;0.90;0.70;;;12.00;99.90;;;;;;5054830;28;20698;-74
2024/04/03 12:11:07;;;;;;;0.80;0.70;;;12.10;99.90;;;;;;5054806;28;20463;-73
2024/04/03 12:13:34;;;;;;;1.38;0.82;;;12.20;99.90;;;;;;5054806;28;20669;-74
2024/04/03 12:16:01;;;;;;;0.80;0.70;;;12.30;99.90;;;;;;5054895;28;20263;-74
2024/04/03 12:18:36;;;;;;;0.90;0.80;;;12.30;99.90;;;;;;5036447;28;20218;-74
2024/04/03 12:21:05;;;;;;;1.80;0.80;;;12.20;99.90;;;;;;5032329;28;20221;-74
2024/04/03 12:23:31;;;;;;;1.20;0.95;;;12.30;99.90;;;;;;5034087;28;20229;-73
2024/04/03 12:25:59;;;;;;;1.00;0.80;;;12.30;99.90;;;;;;5035105;28;20206;-74
2024/04/03 12:28:25;;;;;;;1.10;0.70;;;12.40;99.90;;;;;;5032352;28;20206;-74
2024/04/03 12:30:54;;;;;;;0.80;0.73;;;12.60;99.90;;;;;;5034462;28;20456;-75
2024/04/03 12:33:21;;;;;;;0.80;0.70;;;12.80;99.90;;;;;;5033301;28;20476;-74
2024/04/03 12:35:48;;;;;;;1.10;1.00;;;12.90;99.90;;;;;;5034246;28;20451;-74
2024/04/03 12:38:15;;;;;;;0.80;0.70;;;12.80;99.90;;;;;;5033807;28;20886;-73
2024/04/03 12:40:43;;;;;;;0.73;0.63;;;12.50;99.90;;;;;;5034142;28;20510;-74
2024/04/03 12:43:10;;;;;;;1.23;0.70;;;12.30;99.90;;;;;;5033654;28;20480;-74
2024/04/03 12:45:38;;;;;;;0.80;0.60;;;12.10;99.90;;;;;;5033862;28;20745;-74
2024/04/03 12:48:07;;;;;;;0.80;0.60;;;12.00;99.90;;;;;;5033738;28;20214;-74
2024/04/03 12:50:35;;;;;;;0.90;0.70;;;12.10;99.90;;;;;;5034054;28;20206;-74
2024/04/03 12:53:01;;;;;;;1.00;0.90;;;12.00;99.90;;;;;;5033468;28;20476;-74
2024/04/03 12:55:28;;;;;;;0.80;0.70;;;12.00;99.90;;;;;;5028116;28;21019;-74
2024/04/03 12:57:54;;;;;;;1.00;0.80;;;11.90;99.90;;;;;;5029210;28;20773;-74